sensor_id;sensor_type;location;lat;lon;timestamp;temperature;humidity
44517;DHT22;30223;17.182;-96.766;2023-04-03T00:00:32;30.80;40.20
44517;DHT22;30223;17.182;-96.766;2023-04-03T00:02:59;30.90;36.80
44517;DHT22;30223;17.182;-96.766;2023-04-03T00:05:26;30.90;34.80
44517;DHT22;30223;17.182;-96.766;2023-04-03T00:08:02;30.80;32.30
44517;DHT22;30223;17.182;-96.766;2023-04-03T00:10:30;30.80;31.80
44517;DHT22;30223;17.182;-96.766;2023-04-03T00:12:57;30.80;31.00
44517;DHT22;30223;17.182;-96.766;2023-04-03T00:15:24;30.80;31.10
44517;DHT22;30223;17.182;-96.766;2023-04-03T00:17:51;30.80;31.40
44517;DHT22;30223;17.182;-96.766;2023-04-03T00:20:18;30.80;31.70
44517;DHT22;30223;17.182;-96.766;2023-04-03T00:22:45;30.80;31.40
44517;DHT22;30223;17.182;-96.766;2023-04-03T00:25:12;30.80;31.00
44517;DHT22;30223;17.182;-96.766;2023-04-03T00:27:40;30.80;29.90
44517;DHT22;30223;17.182;-96.766;2023-04-03T00:30:11;30.80;30.30
44517;DHT22;30223;17.182;-96.766;2023-04-03T00:32:39;30.80;29.10
44517;DHT22;30223;17.182;-96.766;2023-04-03T00:35:09;30.80;29.20
44517;DHT22;30223;17.182;-96.766;2023-04-03T00:37:37;30.80;28.80
44517;DHT22;30223;17.182;-96.766;2023-04-03T00:40:04;30.70;28.30
44517;DHT22;30223;17.182;-96.766;2023-04-03T00:42:32;30.60;28.00
44517;DHT22;30223;17.182;-96.766;2023-04-03T00:47:30;30.50;28.00
44517;DHT22;30223;17.182;-96.766;2023-04-03T00:49:58;30.40;28.20
44517;DHT22;30223;17.182;-96.766;2023-04-03T00:52:28;30.40;28.10
44517;DHT22;30223;17.182;-96.766;2023-04-03T00:55:00;30.30;28.30
44517;DHT22;30223;17.182;-96.766;2023-04-03T00:57:30;30.30;28.30
44517;DHT22;30223;17.182;-96.766;2023-04-03T01:00:03;30.20;28.30
44517;DHT22;30223;17.182;-96.766;2023-04-03T01:02:31;30.20;28.50
44517;DHT22;30223;17.182;-96.766;2023-04-03T01:04:57;30.20;28.60
44517;DHT22;30223;17.182;-96.766;2023-04-03T01:07:30;30.10;28.70
44517;DHT22;30223;17.182;-96.766;2023-04-03T01:10:04;30.10;30.00
44517;DHT22;30223;17.182;-96.766;2023-04-03T01:12:36;30.20;30.60
44517;DHT22;30223;17.182;-96.766;2023-04-03T01:15:13;30.30;29.90
44517;DHT22;30223;17.182;-96.766;2023-04-03T01:28:06;30.60;31.10
44517;DHT22;30223;17.182;-96.766;2023-04-03T01:30:39;30.70;30.60
44517;DHT22;30223;17.182;-96.766;2023-04-03T01:33:07;30.80;30.30
44517;DHT22;30223;17.182;-96.766;2023-04-03T01:35:34;30.80;29.80
44517;DHT22;30223;17.182;-96.766;2023-04-03T01:38:01;30.80;29.90
44517;DHT22;30223;17.182;-96.766;2023-04-03T01:40:30;30.90;30.00
44517;DHT22;30223;17.182;-96.766;2023-04-03T01:43:00;30.90;30.00
44517;DHT22;30223;17.182;-96.766;2023-04-03T01:45:41;30.80;30.20
44517;DHT22;30223;17.182;-96.766;2023-04-03T01:48:15;30.80;30.00
44517;DHT22;30223;17.182;-96.766;2023-04-03T01:50:45;30.80;30.20
44517;DHT22;30223;17.182;-96.766;2023-04-03T01:53:24;30.70;30.60
44517;DHT22;30223;17.182;-96.766;2023-04-03T01:55:57;30.60;30.00
44517;DHT22;30223;17.182;-96.766;2023-04-03T01:58:36;30.50;29.90
44517;DHT22;30223;17.182;-96.766;2023-04-03T02:01:05;30.40;30.10
44517;DHT22;30223;17.182;-96.766;2023-04-03T02:03:32;30.40;30.00
44517;DHT22;30223;17.182;-96.766;2023-04-03T02:06:03;30.20;29.80
44517;DHT22;30223;17.182;-96.766;2023-04-03T02:08:30;30.10;30.00
44517;DHT22;30223;17.182;-96.766;2023-04-03T02:10:57;30.10;30.00
44517;DHT22;30223;17.182;-96.766;2023-04-03T02:13:24;30.00;30.00
44517;DHT22;30223;17.182;-96.766;2023-04-03T02:15:50;29.90;30.00
44517;DHT22;30223;17.182;-96.766;2023-04-03T02:18:18;29.90;30.00
44517;DHT22;30223;17.182;-96.766;2023-04-03T02:20:46;29.80;30.20
44517;DHT22;30223;17.182;-96.766;2023-04-03T02:23:14;29.70;30.00
44517;DHT22;30223;17.182;-96.766;2023-04-03T02:25:41;29.70;30.10
44517;DHT22;30223;17.182;-96.766;2023-04-03T02:28:08;29.60;30.00
44517;DHT22;30223;17.182;-96.766;2023-04-03T02:30:35;29.60;30.20
44517;DHT22;30223;17.182;-96.766;2023-04-03T02:33:01;29.60;30.30
44517;DHT22;30223;17.182;-96.766;2023-04-03T02:35:29;29.50;30.70
44517;DHT22;30223;17.182;-96.766;2023-04-03T02:37:56;29.50;30.80
44517;DHT22;30223;17.182;-96.766;2023-04-03T02:40:22;29.50;34.40
44517;DHT22;30223;17.182;-96.766;2023-04-03T02:42:49;29.60;32.90
44517;DHT22;30223;17.182;-96.766;2023-04-03T02:45:16;29.60;34.20
44517;DHT22;30223;17.182;-96.766;2023-04-03T02:47:43;29.60;33.90
44517;DHT22;30223;17.182;-96.766;2023-04-03T02:50:10;29.70;34.20
44517;DHT22;30223;17.182;-96.766;2023-04-03T02:52:37;29.70;32.20
44517;DHT22;30223;17.182;-96.766;2023-04-03T02:55:08;29.70;32.10
44517;DHT22;30223;17.182;-96.766;2023-04-03T02:57:39;29.60;32.90
44517;DHT22;30223;17.182;-96.766;2023-04-03T03:00:08;29.60;31.90
44517;DHT22;30223;17.182;-96.766;2023-04-03T03:02:36;29.50;32.10
44517;DHT22;30223;17.182;-96.766;2023-04-03T03:05:04;29.60;31.90
44517;DHT22;30223;17.182;-96.766;2023-04-03T03:07:31;29.60;32.00
44517;DHT22;30223;17.182;-96.766;2023-04-03T03:09:58;29.60;31.90
44517;DHT22;30223;17.182;-96.766;2023-04-03T03:12:25;29.60;32.90
44517;DHT22;30223;17.182;-96.766;2023-04-03T03:14:52;29.60;32.10
44517;DHT22;30223;17.182;-96.766;2023-04-03T03:17:18;29.60;32.20
44517;DHT22;30223;17.182;-96.766;2023-04-03T03:19:45;29.60;32.30
44517;DHT22;30223;17.182;-96.766;2023-04-03T03:22:12;29.60;31.90
44517;DHT22;30223;17.182;-96.766;2023-04-03T03:24:39;29.60;31.40
44517;DHT22;30223;17.182;-96.766;2023-04-03T03:27:06;29.60;31.10
44517;DHT22;30223;17.182;-96.766;2023-04-03T03:29:32;29.60;31.40
44517;DHT22;30223;17.182;-96.766;2023-04-03T03:31:59;29.60;32.50
44517;DHT22;30223;17.182;-96.766;2023-04-03T03:34:26;29.60;31.70
44517;DHT22;30223;17.182;-96.766;2023-04-03T03:36:53;29.60;32.20
44517;DHT22;30223;17.182;-96.766;2023-04-03T03:39:20;29.50;31.60
44517;DHT22;30223;17.182;-96.766;2023-04-03T03:41:47;29.50;33.10
44517;DHT22;30223;17.182;-96.766;2023-04-03T03:44:15;29.50;32.80
44517;DHT22;30223;17.182;-96.766;2023-04-03T03:46:42;29.50;32.50
44517;DHT22;30223;17.182;-96.766;2023-04-03T03:49:09;29.40;32.10
44517;DHT22;30223;17.182;-96.766;2023-04-03T03:51:37;29.40;31.90
44517;DHT22;30223;17.182;-96.766;2023-04-03T03:54:04;29.50;31.90
44517;DHT22;30223;17.182;-96.766;2023-04-03T03:56:32;29.40;31.10
44517;DHT22;30223;17.182;-96.766;2023-04-03T03:58:59;29.40;31.50
44517;DHT22;30223;17.182;-96.766;2023-04-03T04:01:26;29.40;31.50
44517;DHT22;30223;17.182;-96.766;2023-04-03T04:03:52;29.40;31.40
44517;DHT22;30223;17.182;-96.766;2023-04-03T04:06:21;29.40;31.60
44517;DHT22;30223;17.182;-96.766;2023-04-03T04:08:47;29.30;30.90
44517;DHT22;30223;17.182;-96.766;2023-04-03T04:11:14;29.30;31.10
44517;DHT22;30223;17.182;-96.766;2023-04-03T04:13:41;29.20;30.90
44517;DHT22;30223;17.182;-96.766;2023-04-03T04:16:08;29.20;32.10
44517;DHT22;30223;17.182;-96.766;2023-04-03T04:18:35;29.20;31.90
44517;DHT22;30223;17.182;-96.766;2023-04-03T04:21:02;29.20;31.60
44517;DHT22;30223;17.182;-96.766;2023-04-03T04:23:29;29.10;31.40
44517;DHT22;30223;17.182;-96.766;2023-04-03T04:25:56;29.10;31.20
44517;DHT22;30223;17.182;-96.766;2023-04-03T04:28:23;29.00;31.10
44517;DHT22;30223;17.182;-96.766;2023-04-03T04:30:50;28.90;31.20
44517;DHT22;30223;17.182;-96.766;2023-04-03T04:33:17;28.90;31.50
44517;DHT22;30223;17.182;-96.766;2023-04-03T04:35:43;28.70;31.30
44517;DHT22;30223;17.182;-96.766;2023-04-03T04:38:10;28.70;31.40
44517;DHT22;30223;17.182;-96.766;2023-04-03T04:40:37;28.60;31.30
44517;DHT22;30223;17.182;-96.766;2023-04-03T04:43:04;28.60;31.60
44517;DHT22;30223;17.182;-96.766;2023-04-03T04:45:31;28.50;31.60
44517;DHT22;30223;17.182;-96.766;2023-04-03T04:47:58;28.40;31.50
44517;DHT22;30223;17.182;-96.766;2023-04-03T04:50:24;28.40;31.50
44517;DHT22;30223;17.182;-96.766;2023-04-03T04:52:51;28.30;31.80
44517;DHT22;30223;17.182;-96.766;2023-04-03T04:55:18;28.30;32.70
44517;DHT22;30223;17.182;-96.766;2023-04-03T04:57:44;28.20;33.00
44517;DHT22;30223;17.182;-96.766;2023-04-03T05:00:12;28.20;33.30
44517;DHT22;30223;17.182;-96.766;2023-04-03T05:02:39;28.20;33.20
44517;DHT22;30223;17.182;-96.766;2023-04-03T05:05:06;28.10;32.70
44517;DHT22;30223;17.182;-96.766;2023-04-03T05:07:33;28.10;32.90
44517;DHT22;30223;17.182;-96.766;2023-04-03T05:10:02;28.00;33.70
44517;DHT22;30223;17.182;-96.766;2023-04-03T05:12:29;28.00;33.90
44517;DHT22;30223;17.182;-96.766;2023-04-03T05:14:56;28.00;33.50
44517;DHT22;30223;17.182;-96.766;2023-04-03T05:17:23;27.90;33.30
44517;DHT22;30223;17.182;-96.766;2023-04-03T05:19:49;27.90;33.70
44517;DHT22;30223;17.182;-96.766;2023-04-03T05:22:16;27.90;34.30
44517;DHT22;30223;17.182;-96.766;2023-04-03T05:24:43;27.80;34.80
44517;DHT22;30223;17.182;-96.766;2023-04-03T05:27:10;27.80;35.90
44517;DHT22;30223;17.182;-96.766;2023-04-03T05:29:37;27.80;35.70
44517;DHT22;30223;17.182;-96.766;2023-04-03T05:32:04;27.80;35.70
44517;DHT22;30223;17.182;-96.766;2023-04-03T05:34:30;27.90;35.40
44517;DHT22;30223;17.182;-96.766;2023-04-03T05:36:57;27.90;35.80
44517;DHT22;30223;17.182;-96.766;2023-04-03T05:39:24;28.00;35.00
44517;DHT22;30223;17.182;-96.766;2023-04-03T05:41:51;28.00;36.00
44517;DHT22;30223;17.182;-96.766;2023-04-03T05:44:18;28.00;35.20
44517;DHT22;30223;17.182;-96.766;2023-04-03T05:46:45;28.00;34.70
44517;DHT22;30223;17.182;-96.766;2023-04-03T05:49:11;28.00;34.40
44517;DHT22;30223;17.182;-96.766;2023-04-03T05:51:39;28.00;34.20
44517;DHT22;30223;17.182;-96.766;2023-04-03T05:54:10;28.00;34.60
44517;DHT22;30223;17.182;-96.766;2023-04-03T05:56:38;28.10;34.40
44517;DHT22;30223;17.182;-96.766;2023-04-03T05:59:05;28.00;33.90
44517;DHT22;30223;17.182;-96.766;2023-04-03T06:01:33;28.00;33.70
44517;DHT22;30223;17.182;-96.766;2023-04-03T06:04:00;28.00;33.90
44517;DHT22;30223;17.182;-96.766;2023-04-03T06:06:49;27.90;33.90
44517;DHT22;30223;17.182;-96.766;2023-04-03T06:09:19;27.80;34.20
44517;DHT22;30223;17.182;-96.766;2023-04-03T06:11:46;27.80;36.90
44517;DHT22;30223;17.182;-96.766;2023-04-03T06:14:13;27.80;36.00
44517;DHT22;30223;17.182;-96.766;2023-04-03T06:16:40;27.80;36.80
44517;DHT22;30223;17.182;-96.766;2023-04-03T06:19:08;27.70;37.00
44517;DHT22;30223;17.182;-96.766;2023-04-03T06:21:36;27.70;37.10
44517;DHT22;30223;17.182;-96.766;2023-04-03T06:24:04;27.70;37.10
44517;DHT22;30223;17.182;-96.766;2023-04-03T06:26:32;27.60;37.10
44517;DHT22;30223;17.182;-96.766;2023-04-03T06:28:59;27.60;37.00
44517;DHT22;30223;17.182;-96.766;2023-04-03T06:31:26;27.60;37.00
44517;DHT22;30223;17.182;-96.766;2023-04-03T06:33:52;27.50;37.00
44517;DHT22;30223;17.182;-96.766;2023-04-03T06:36:20;27.50;37.00
44517;DHT22;30223;17.182;-96.766;2023-04-03T06:38:47;27.50;37.00
44517;DHT22;30223;17.182;-96.766;2023-04-03T06:41:14;27.40;37.00
44517;DHT22;30223;17.182;-96.766;2023-04-03T06:43:43;27.40;37.00
44517;DHT22;30223;17.182;-96.766;2023-04-03T06:46:17;27.40;37.00
44517;DHT22;30223;17.182;-96.766;2023-04-03T06:48:45;27.40;37.00
44517;DHT22;30223;17.182;-96.766;2023-04-03T06:51:24;27.40;36.90
44517;DHT22;30223;17.182;-96.766;2023-04-03T06:53:52;27.30;36.80
44517;DHT22;30223;17.182;-96.766;2023-04-03T06:56:20;27.30;36.80
44517;DHT22;30223;17.182;-96.766;2023-04-03T06:58:47;27.30;36.90
44517;DHT22;30223;17.182;-96.766;2023-04-03T07:01:18;27.30;37.60
44517;DHT22;30223;17.182;-96.766;2023-04-03T07:03:48;27.20;36.80
44517;DHT22;30223;17.182;-96.766;2023-04-03T07:06:16;27.20;36.90
44517;DHT22;30223;17.182;-96.766;2023-04-03T07:08:43;27.20;36.90
44517;DHT22;30223;17.182;-96.766;2023-04-03T07:11:11;27.20;36.90
44517;DHT22;30223;17.182;-96.766;2023-04-03T07:13:38;27.10;36.90
44517;DHT22;30223;17.182;-96.766;2023-04-03T07:16:05;27.10;36.80
44517;DHT22;30223;17.182;-96.766;2023-04-03T07:18:33;27.10;36.80
44517;DHT22;30223;17.182;-96.766;2023-04-03T07:21:00;27.10;36.90
44517;DHT22;30223;17.182;-96.766;2023-04-03T07:23:27;27.10;36.90
44517;DHT22;30223;17.182;-96.766;2023-04-03T07:25:54;27.10;37.00
44517;DHT22;30223;17.182;-96.766;2023-04-03T07:28:21;27.10;37.00
44517;DHT22;30223;17.182;-96.766;2023-04-03T07:30:51;27.00;37.00
44517;DHT22;30223;17.182;-96.766;2023-04-03T07:33:19;27.00;37.00
44517;DHT22;30223;17.182;-96.766;2023-04-03T07:35:47;27.00;37.00
44517;DHT22;30223;17.182;-96.766;2023-04-03T07:38:14;27.00;37.10
44517;DHT22;30223;17.182;-96.766;2023-04-03T07:40:46;27.00;37.10
44517;DHT22;30223;17.182;-96.766;2023-04-03T07:43:14;27.00;37.10
44517;DHT22;30223;17.182;-96.766;2023-04-03T07:45:41;26.90;37.10
44517;DHT22;30223;17.182;-96.766;2023-04-03T07:48:10;27.00;37.10
44517;DHT22;30223;17.182;-96.766;2023-04-03T07:50:37;26.90;37.10
44517;DHT22;30223;17.182;-96.766;2023-04-03T07:53:06;26.90;37.10
44517;DHT22;30223;17.182;-96.766;2023-04-03T07:55:34;26.90;37.20
44517;DHT22;30223;17.182;-96.766;2023-04-03T07:58:03;26.90;37.30
44517;DHT22;30223;17.182;-96.766;2023-04-03T08:00:30;26.80;37.10
44517;DHT22;30223;17.182;-96.766;2023-04-03T08:02:57;26.80;37.20
44517;DHT22;30223;17.182;-96.766;2023-04-03T08:05:23;26.80;37.20
44517;DHT22;30223;17.182;-96.766;2023-04-03T08:07:51;26.80;37.30
44517;DHT22;30223;17.182;-96.766;2023-04-03T08:10:18;26.70;37.20
44517;DHT22;30223;17.182;-96.766;2023-04-03T08:12:47;26.80;37.30
44517;DHT22;30223;17.182;-96.766;2023-04-03T08:15:14;26.70;37.30
44517;DHT22;30223;17.182;-96.766;2023-04-03T08:17:42;26.70;37.30
44517;DHT22;30223;17.182;-96.766;2023-04-03T08:20:10;26.70;37.30
44517;DHT22;30223;17.182;-96.766;2023-04-03T08:22:37;26.70;37.40
44517;DHT22;30223;17.182;-96.766;2023-04-03T08:25:03;26.70;37.40
44517;DHT22;30223;17.182;-96.766;2023-04-03T08:27:30;26.70;37.50
44517;DHT22;30223;17.182;-96.766;2023-04-03T08:29:57;26.60;37.40
44517;DHT22;30223;17.182;-96.766;2023-04-03T08:32:24;26.60;37.50
44517;DHT22;30223;17.182;-96.766;2023-04-03T08:34:50;26.60;37.50
44517;DHT22;30223;17.182;-96.766;2023-04-03T08:37:17;26.60;37.50
44517;DHT22;30223;17.182;-96.766;2023-04-03T08:39:45;26.60;37.60
44517;DHT22;30223;17.182;-96.766;2023-04-03T08:42:36;26.50;37.50
44517;DHT22;30223;17.182;-96.766;2023-04-03T08:45:12;26.60;37.60
44517;DHT22;30223;17.182;-96.766;2023-04-03T08:47:47;26.50;37.60
44517;DHT22;30223;17.182;-96.766;2023-04-03T08:50:19;26.50;37.60
44517;DHT22;30223;17.182;-96.766;2023-04-03T08:52:51;26.50;37.60
44517;DHT22;30223;17.182;-96.766;2023-04-03T08:55:42;26.50;37.60
44517;DHT22;30223;17.182;-96.766;2023-04-03T08:58:16;26.50;37.70
44517;DHT22;30223;17.182;-96.766;2023-04-03T09:00:53;26.40;37.70
44517;DHT22;30223;17.182;-96.766;2023-04-03T09:03:23;26.40;37.70
44517;DHT22;30223;17.182;-96.766;2023-04-03T09:05:55;26.40;37.70
44517;DHT22;30223;17.182;-96.766;2023-04-03T09:08:23;26.40;37.70
44517;DHT22;30223;17.182;-96.766;2023-04-03T09:11:14;26.40;37.70
44517;DHT22;30223;17.182;-96.766;2023-04-03T09:22:21;26.30;37.80
44517;DHT22;30223;17.182;-96.766;2023-04-03T09:27:39;26.30;37.80
44517;DHT22;30223;17.182;-96.766;2023-04-03T09:30:11;26.20;37.80
44517;DHT22;30223;17.182;-96.766;2023-04-03T09:32:39;26.20;37.80
44517;DHT22;30223;17.182;-96.766;2023-04-03T09:37:46;26.20;37.80
44517;DHT22;30223;17.182;-96.766;2023-04-03T09:43:00;26.20;37.90
44517;DHT22;30223;17.182;-96.766;2023-04-03T09:45:34;26.10;37.80
44517;DHT22;30223;17.182;-96.766;2023-04-03T09:48:21;26.10;37.80
44517;DHT22;30223;17.182;-96.766;2023-04-03T09:53:43;26.10;37.90
44517;DHT22;30223;17.182;-96.766;2023-04-03T09:58:51;26.10;37.90
44517;DHT22;30223;17.182;-96.766;2023-04-03T10:04:14;26.00;37.90
44517;DHT22;30223;17.182;-96.766;2023-04-03T10:06:47;26.00;38.00
44517;DHT22;30223;17.182;-96.766;2023-04-03T10:12:04;26.00;38.00
44517;DHT22;30223;17.182;-96.766;2023-04-03T10:14:39;26.00;38.00
44517;DHT22;30223;17.182;-96.766;2023-04-03T10:17:18;25.90;38.00
44517;DHT22;30223;17.182;-96.766;2023-04-03T10:28:36;25.90;38.10
44517;DHT22;30223;17.182;-96.766;2023-04-03T10:31:25;25.80;38.10
44517;DHT22;30223;17.182;-96.766;2023-04-03T10:34:17;25.80;38.00
44517;DHT22;30223;17.182;-96.766;2023-04-03T10:37:11;25.80;38.10
44517;DHT22;30223;17.182;-96.766;2023-04-03T10:42:46;25.80;38.10
44517;DHT22;30223;17.182;-96.766;2023-04-03T10:45:30;25.80;38.10
44517;DHT22;30223;17.182;-96.766;2023-04-03T10:48:46;25.70;38.10
44517;DHT22;30223;17.182;-96.766;2023-04-03T10:51:18;25.70;38.10
44517;DHT22;30223;17.182;-96.766;2023-04-03T10:54:13;25.70;38.10
44517;DHT22;30223;17.182;-96.766;2023-04-03T10:56:59;25.70;38.10
44517;DHT22;30223;17.182;-96.766;2023-04-03T11:02:25;25.70;38.10
44517;DHT22;30223;17.182;-96.766;2023-04-03T11:05:05;25.70;38.10
44517;DHT22;30223;17.182;-96.766;2023-04-03T11:07:45;25.60;38.10
44517;DHT22;30223;17.182;-96.766;2023-04-03T11:10:21;25.60;38.10
44517;DHT22;30223;17.182;-96.766;2023-04-03T11:15:53;25.60;38.20
44517;DHT22;30223;17.182;-96.766;2023-04-03T11:19:10;25.50;38.10
44517;DHT22;30223;17.182;-96.766;2023-04-03T11:21:47;25.50;38.20
44517;DHT22;30223;17.182;-96.766;2023-04-03T11:24:25;25.50;38.20
44517;DHT22;30223;17.182;-96.766;2023-04-03T11:26:55;25.50;38.30
44517;DHT22;30223;17.182;-96.766;2023-04-03T11:29:32;25.50;38.30
44517;DHT22;30223;17.182;-96.766;2023-04-03T11:32:32;25.50;38.30
44517;DHT22;30223;17.182;-96.766;2023-04-03T11:35:06;25.40;38.20
44517;DHT22;30223;17.182;-96.766;2023-04-03T11:37:38;25.40;38.20
44517;DHT22;30223;17.182;-96.766;2023-04-03T11:40:29;25.40;38.20
44517;DHT22;30223;17.182;-96.766;2023-04-03T11:43:18;25.40;38.30
44517;DHT22;30223;17.182;-96.766;2023-04-03T11:46:04;25.30;38.20
44517;DHT22;30223;17.182;-96.766;2023-04-03T11:51:00;25.30;38.30
44517;DHT22;30223;17.182;-96.766;2023-04-03T11:53:37;25.30;38.30
44517;DHT22;30223;17.182;-96.766;2023-04-03T12:01:58;25.30;38.30
44517;DHT22;30223;17.182;-96.766;2023-04-03T12:04:26;25.30;38.30
44517;DHT22;30223;17.182;-96.766;2023-04-03T12:06:58;25.20;38.30
44517;DHT22;30223;17.182;-96.766;2023-04-03T12:09:56;25.20;38.30
44517;DHT22;30223;17.182;-96.766;2023-04-03T12:12:31;25.20;38.30
44517;DHT22;30223;17.182;-96.766;2023-04-03T12:15:50;25.20;38.40
44517;DHT22;30223;17.182;-96.766;2023-04-03T12:21:24;25.10;38.30
44517;DHT22;30223;17.182;-96.766;2023-04-03T12:27:21;25.10;38.40
44517;DHT22;30223;17.182;-96.766;2023-04-03T12:29:58;25.10;38.40
44517;DHT22;30223;17.182;-96.766;2023-04-03T12:46:24;25.00;38.50
44517;DHT22;30223;17.182;-96.766;2023-04-03T12:48:55;25.00;38.50
44517;DHT22;30223;17.182;-96.766;2023-04-03T12:51:41;24.90;38.50
44517;DHT22;30223;17.182;-96.766;2023-04-03T12:54:44;24.90;38.50
44517;DHT22;30223;17.182;-96.766;2023-04-03T12:57:25;24.90;38.50
44517;DHT22;30223;17.182;-96.766;2023-04-03T12:59:53;24.90;38.50
44517;DHT22;30223;17.182;-96.766;2023-04-03T13:02:29;24.90;38.50
44517;DHT22;30223;17.182;-96.766;2023-04-03T13:05:08;24.90;38.60
44517;DHT22;30223;17.182;-96.766;2023-04-03T13:07:38;24.80;38.50
44517;DHT22;30223;17.182;-96.766;2023-04-03T13:13:07;24.80;38.50
44517;DHT22;30223;17.182;-96.766;2023-04-03T13:15:46;24.80;38.60
44517;DHT22;30223;17.182;-96.766;2023-04-03T13:18:34;24.80;38.60
44517;DHT22;30223;17.182;-96.766;2023-04-03T13:21:20;24.80;38.60
44517;DHT22;30223;17.182;-96.766;2023-04-03T13:23:51;24.80;38.60
44517;DHT22;30223;17.182;-96.766;2023-04-03T13:26:21;24.80;38.70
44517;DHT22;30223;17.182;-96.766;2023-04-03T13:28:49;24.80;38.70
44517;DHT22;30223;17.182;-96.766;2023-04-03T13:31:22;24.70;38.60
44517;DHT22;30223;17.182;-96.766;2023-04-03T13:36:29;24.70;38.70
44517;DHT22;30223;17.182;-96.766;2023-04-03T13:39:05;24.70;38.70
44517;DHT22;30223;17.182;-96.766;2023-04-03T13:41:36;24.70;38.80
44517;DHT22;30223;17.182;-96.766;2023-04-03T13:46:53;24.70;38.80
44517;DHT22;30223;17.182;-96.766;2023-04-03T13:49:42;24.70;38.80
44517;DHT22;30223;17.182;-96.766;2023-04-03T13:52:27;24.60;38.80
44517;DHT22;30223;17.182;-96.766;2023-04-03T13:55:00;24.60;38.80
44517;DHT22;30223;17.182;-96.766;2023-04-03T13:57:28;24.60;38.80
44517;DHT22;30223;17.182;-96.766;2023-04-03T13:59:54;24.60;38.80
44517;DHT22;30223;17.182;-96.766;2023-04-03T14:02:32;24.60;38.90
44517;DHT22;30223;17.182;-96.766;2023-04-03T14:05:01;24.60;38.90
44517;DHT22;30223;17.182;-96.766;2023-04-03T14:07:30;24.60;39.00
44517;DHT22;30223;17.182;-96.766;2023-04-03T14:09:57;24.60;39.10
44517;DHT22;30223;17.182;-96.766;2023-04-03T14:12:33;24.60;39.20
44517;DHT22;30223;17.182;-96.766;2023-04-03T14:15:04;24.60;39.40
44517;DHT22;30223;17.182;-96.766;2023-04-03T14:17:32;24.70;39.80
44517;DHT22;30223;17.182;-96.766;2023-04-03T14:19:59;24.80;39.80
44517;DHT22;30223;17.182;-96.766;2023-04-03T14:22:30;24.80;40.00
44517;DHT22;30223;17.182;-96.766;2023-04-03T14:24:57;24.90;39.40
44517;DHT22;30223;17.182;-96.766;2023-04-03T14:27:39;24.80;39.20
44517;DHT22;30223;17.182;-96.766;2023-04-03T14:30:11;24.90;39.20
44517;DHT22;30223;17.182;-96.766;2023-04-03T14:32:43;24.90;39.00
44517;DHT22;30223;17.182;-96.766;2023-04-03T14:35:09;24.90;38.90
44517;DHT22;30223;17.182;-96.766;2023-04-03T14:37:36;24.90;38.80
44517;DHT22;30223;17.182;-96.766;2023-04-03T14:40:04;24.90;38.90
44517;DHT22;30223;17.182;-96.766;2023-04-03T14:42:34;24.90;38.90
44517;DHT22;30223;17.182;-96.766;2023-04-03T14:45:05;24.90;38.90
44517;DHT22;30223;17.182;-96.766;2023-04-03T14:47:32;24.80;38.90
44517;DHT22;30223;17.182;-96.766;2023-04-03T14:50:00;24.80;38.90
44517;DHT22;30223;17.182;-96.766;2023-04-03T14:52:33;24.80;38.90
44517;DHT22;30223;17.182;-96.766;2023-04-03T14:55:01;24.80;38.90
44517;DHT22;30223;17.182;-96.766;2023-04-03T14:57:29;24.80;38.90
44517;DHT22;30223;17.182;-96.766;2023-04-03T14:59:56;24.80;39.00
44517;DHT22;30223;17.182;-96.766;2023-04-03T15:02:27;24.80;39.00
44517;DHT22;30223;17.182;-96.766;2023-04-03T15:04:55;24.80;39.00
44517;DHT22;30223;17.182;-96.766;2023-04-03T15:07:23;24.80;39.00
44517;DHT22;30223;17.182;-96.766;2023-04-03T15:09:51;24.80;39.00
44517;DHT22;30223;17.182;-96.766;2023-04-03T15:12:17;24.80;39.00
44517;DHT22;30223;17.182;-96.766;2023-04-03T15:14:44;24.80;39.00
44517;DHT22;30223;17.182;-96.766;2023-04-03T15:17:16;24.90;39.10
44517;DHT22;30223;17.182;-96.766;2023-04-03T15:19:43;24.90;39.10
44517;DHT22;30223;17.182;-96.766;2023-04-03T15:22:19;24.90;39.00
44517;DHT22;30223;17.182;-96.766;2023-04-03T15:24:46;24.90;39.00
44517;DHT22;30223;17.182;-96.766;2023-04-03T15:27:14;25.00;39.00
44517;DHT22;30223;17.182;-96.766;2023-04-03T15:29:43;25.00;39.00
44517;DHT22;30223;17.182;-96.766;2023-04-03T15:32:11;25.00;39.00
44517;DHT22;30223;17.182;-96.766;2023-04-03T15:34:38;25.00;39.10
44517;DHT22;30223;17.182;-96.766;2023-04-03T15:37:05;25.00;39.10
44517;DHT22;30223;17.182;-96.766;2023-04-03T15:39:32;25.00;39.10
44517;DHT22;30223;17.182;-96.766;2023-04-03T15:41:58;25.00;39.10
44517;DHT22;30223;17.182;-96.766;2023-04-03T15:44:33;25.00;39.10
44517;DHT22;30223;17.182;-96.766;2023-04-03T15:47:03;25.00;39.20
44517;DHT22;30223;17.182;-96.766;2023-04-03T15:49:31;25.00;39.20
44517;DHT22;30223;17.182;-96.766;2023-04-03T15:51:59;25.00;39.20
44517;DHT22;30223;17.182;-96.766;2023-04-03T15:54:25;25.00;39.20
44517;DHT22;30223;17.182;-96.766;2023-04-03T15:56:53;25.00;39.20
44517;DHT22;30223;17.182;-96.766;2023-04-03T15:59:19;25.00;39.40
44517;DHT22;30223;17.182;-96.766;2023-04-03T16:01:46;25.00;39.30
44517;DHT22;30223;17.182;-96.766;2023-04-03T16:04:13;25.00;39.30
44517;DHT22;30223;17.182;-96.766;2023-04-03T16:06:40;25.10;39.30
44517;DHT22;30223;17.182;-96.766;2023-04-03T16:09:07;25.10;39.30
44517;DHT22;30223;17.182;-96.766;2023-04-03T16:11:34;25.10;39.30
44517;DHT22;30223;17.182;-96.766;2023-04-03T16:14:06;25.20;39.20
44517;DHT22;30223;17.182;-96.766;2023-04-03T16:16:34;25.30;39.20
44517;DHT22;30223;17.182;-96.766;2023-04-03T16:19:01;25.30;39.20
44517;DHT22;30223;17.182;-96.766;2023-04-03T16:21:28;25.30;39.10
44517;DHT22;30223;17.182;-96.766;2023-04-03T16:23:57;25.40;39.20
44517;DHT22;30223;17.182;-96.766;2023-04-03T16:26:25;25.40;39.10
44517;DHT22;30223;17.182;-96.766;2023-04-03T16:28:52;25.40;39.10
44517;DHT22;30223;17.182;-96.766;2023-04-03T16:31:20;25.50;39.10
44517;DHT22;30223;17.182;-96.766;2023-04-03T16:33:47;25.50;39.10
44517;DHT22;30223;17.182;-96.766;2023-04-03T16:36:13;25.50;39.10
44517;DHT22;30223;17.182;-96.766;2023-04-03T16:38:40;25.50;39.10
44517;DHT22;30223;17.182;-96.766;2023-04-03T16:41:07;25.50;39.10
44517;DHT22;30223;17.182;-96.766;2023-04-03T16:43:34;25.60;39.20
44517;DHT22;30223;17.182;-96.766;2023-04-03T16:46:02;25.60;39.20
44517;DHT22;30223;17.182;-96.766;2023-04-03T16:48:30;25.60;39.20
44517;DHT22;30223;17.182;-96.766;2023-04-03T16:50:56;25.70;39.20
44517;DHT22;30223;17.182;-96.766;2023-04-03T16:53:25;25.70;39.10
44517;DHT22;30223;17.182;-96.766;2023-04-03T16:55:54;25.70;39.20
44517;DHT22;30223;17.182;-96.766;2023-04-03T16:58:20;25.70;39.20